createdAt,value
2018-09-13T00:00:53.976Z,66.56
2018-09-13T00:03:17.856Z,68.27
2018-09-13T00:05:41.692Z,68.34
2018-09-13T00:08:05.577Z,66.94
2018-09-13T00:10:29.404Z,66.04
2018-09-13T00:12:53.286Z,65.63
2018-09-13T00:15:17.160Z,66.27
2018-09-13T00:17:40.963Z,66.89
2018-09-13T00:20:04.836Z,66.38
2018-09-13T00:22:28.736Z,67.03
2018-09-13T00:24:52.590Z,66.84
2018-09-13T00:27:16.438Z,67.09
2018-09-13T00:29:40.294Z,67.28
2018-09-13T00:32:04.148Z,66.98
2018-09-13T00:34:27.981Z,67.20
2018-09-13T00:36:51.841Z,67.09
2018-09-13T00:39:15.687Z,68.18
2018-09-13T00:41:39.964Z,69.53
2018-09-13T00:44:03.803Z,69.21
2018-09-13T00:46:27.662Z,68.12
2018-09-13T00:48:51.504Z,67.82
2018-09-13T00:51:15.359Z,68.62
2018-09-13T00:53:39.218Z,68.40
2018-09-13T00:56:03.093Z,68.02
2018-09-13T00:58:26.961Z,67.80
2018-09-13T01:00:50.811Z,67.54
2018-09-13T01:03:14.661Z,67.71
2018-09-13T01:05:38.539Z,67.81
2018-09-13T01:08:02.365Z,67.53
2018-09-13T01:10:26.229Z,67.33
2018-09-13T01:12:50.035Z,68.08
2018-09-13T01:15:13.900Z,67.98
2018-09-13T01:17:37.732Z,67.82
2018-09-13T01:20:01.614Z,67.93
2018-09-13T01:22:25.496Z,67.89
2018-09-13T01:24:53.537Z,68.73
2018-09-13T01:27:17.385Z,67.52
2018-09-13T01:29:41.223Z,67.33
2018-09-13T01:32:05.114Z,66.74
2018-09-13T01:34:28.941Z,67.77
2018-09-13T01:36:52.791Z,68.79
2018-09-13T01:39:16.665Z,68.16
2018-09-13T01:41:40.625Z,67.62
2018-09-13T01:44:04.460Z,67.70
2018-09-13T01:46:28.316Z,68.03
2018-09-13T01:48:52.257Z,68.25
2018-09-13T01:51:16.092Z,68.52
2018-09-13T01:53:39.947Z,68.01
2018-09-13T01:56:03.835Z,68.40
2018-09-13T01:58:27.690Z,68.46
2018-09-13T02:00:51.536Z,69.32
2018-09-13T02:03:15.362Z,68.92
2018-09-13T02:05:39.246Z,68.80
2018-09-13T02:08:03.120Z,68.21
2018-09-13T02:10:26.990Z,67.94
2018-09-13T02:12:50.812Z,68.50
2018-09-13T02:15:14.749Z,68.39
2018-09-13T02:17:38.588Z,68.85
2018-09-13T02:20:02.433Z,68.42
2018-09-13T02:22:26.732Z,68.58
2018-09-13T02:24:51.092Z,68.47
2018-09-13T02:27:15.136Z,68.55
2018-09-13T02:29:39.012Z,68.69
2018-09-13T02:32:02.909Z,68.00
2018-09-13T02:34:26.785Z,69.13
2018-09-13T02:36:51.568Z,69.66
2018-09-13T02:39:15.503Z,69.00
2018-09-13T02:41:39.457Z,69.07
2018-09-13T02:44:03.401Z,69.41
2018-09-13T02:46:27.198Z,68.74
2018-09-13T02:48:51.047Z,69.27
2018-09-13T02:51:14.902Z,68.83
2018-09-13T02:53:38.743Z,68.90
2018-09-13T02:56:02.594Z,68.75
2018-09-13T02:58:26.421Z,69.06
2018-09-13T03:00:50.419Z,68.54
2018-09-13T03:03:14.364Z,68.77
2018-09-13T03:05:38.255Z,68.54
2018-09-13T03:08:02.114Z,68.22
2018-09-13T03:10:25.946Z,69.27
2018-09-13T03:12:49.850Z,68.33
2018-09-13T03:15:13.675Z,68.69
2018-09-13T03:17:37.513Z,68.22
2018-09-13T03:20:01.414Z,68.13
2018-09-13T03:22:25.273Z,67.87
2018-09-13T03:24:49.107Z,67.98
2018-09-13T03:27:12.921Z,68.22
2018-09-13T03:29:36.790Z,68.31
2018-09-13T03:32:00.611Z,67.90
2018-09-13T03:34:24.498Z,67.75
2018-09-13T03:36:48.376Z,67.45
2018-09-13T03:39:13.207Z,67.56
2018-09-13T03:41:37.103Z,67.58
2018-09-13T03:44:01.112Z,67.30
2018-09-13T03:46:24.982Z,66.32
2018-09-13T03:48:48.848Z,67.21
2018-09-13T03:51:12.655Z,67.08
2018-09-13T03:53:36.510Z,66.93
2018-09-13T03:56:00.351Z,66.81
2018-09-13T03:58:24.209Z,66.16
2018-09-13T04:00:48.080Z,66.11
2018-09-13T04:03:11.922Z,66.68
2018-09-13T04:05:35.785Z,66.21
2018-09-13T04:07:59.646Z,66.53
2018-09-13T04:10:23.549Z,65.98
2018-09-13T04:12:48.046Z,65.87
2018-09-13T04:15:11.890Z,65.99
2018-09-13T04:17:35.769Z,65.40
2018-09-13T04:19:59.647Z,66.02
2018-09-13T04:22:23.511Z,66.61
2018-09-13T04:24:47.514Z,66.51
2018-09-13T04:27:11.856Z,66.49
2018-09-13T04:29:35.677Z,67.04
2018-09-13T04:31:59.491Z,66.61
2018-09-13T04:34:23.326Z,67.07
2018-09-13T04:36:47.169Z,67.29
2018-09-13T04:39:11.019Z,67.17
2018-09-13T04:41:34.869Z,66.67
2018-09-13T04:43:58.707Z,66.36
2018-09-13T04:46:22.557Z,66.41
2018-09-13T04:48:46.426Z,66.25
2018-09-13T04:51:10.291Z,66.76
2018-09-13T04:53:34.123Z,66.87
2018-09-13T04:55:57.986Z,67.01
2018-09-13T04:58:21.822Z,66.94
2018-09-13T05:00:45.712Z,67.63
2018-09-13T05:03:09.543Z,67.82
2018-09-13T05:05:33.399Z,67.13
2018-09-13T05:07:57.439Z,68.14
2018-09-13T05:10:21.294Z,68.20
2018-09-13T05:12:45.144Z,68.03
2018-09-13T05:15:08.959Z,68.48
2018-09-13T05:17:32.808Z,67.93
2018-09-13T05:19:56.641Z,67.49
2018-09-13T05:22:20.530Z,67.23
2018-09-13T05:24:44.378Z,66.70
2018-09-13T05:27:08.232Z,66.89
2018-09-13T05:29:32.189Z,67.19
2018-09-13T05:31:56.039Z,66.38
2018-09-13T05:34:19.944Z,67.14
2018-09-13T05:36:43.801Z,67.06
2018-09-13T05:39:11.024Z,66.88
2018-09-13T05:41:34.966Z,66.09
2018-09-13T05:43:58.818Z,65.82
2018-09-13T05:46:22.676Z,66.22
2018-09-13T05:48:46.512Z,66.25
2018-09-13T05:51:10.402Z,65.79
2018-09-13T05:53:34.410Z,65.38
2018-09-13T05:55:58.290Z,65.05
2018-09-13T05:58:22.144Z,65.05
2018-09-13T06:00:46.094Z,65.03
2018-09-13T06:03:09.918Z,64.52
2018-09-13T06:05:33.737Z,64.57
2018-09-13T06:07:57.600Z,64.26
2018-09-13T06:10:21.419Z,64.22
2018-09-13T06:12:45.362Z,64.37
2018-09-13T06:15:09.365Z,65.14
2018-09-13T06:17:33.170Z,65.45
2018-09-13T06:19:57.067Z,64.57
2018-09-13T06:22:20.946Z,63.30
2018-09-13T06:24:44.815Z,63.61
2018-09-13T06:27:08.660Z,63.54
2018-09-13T06:29:32.679Z,63.20
2018-09-13T06:31:56.457Z,63.69
2018-09-13T06:34:20.263Z,63.74
2018-09-13T06:36:44.169Z,64.14
2018-09-13T06:39:08.971Z,63.97
2018-09-13T06:41:32.826Z,63.82
2018-09-13T06:43:56.703Z,64.38
2018-09-13T06:46:20.590Z,64.76
2018-09-13T06:48:45.068Z,65.25
2018-09-13T06:51:09.027Z,65.90
2018-09-13T06:53:32.883Z,67.53
2018-09-13T06:55:56.723Z,68.92
2018-09-13T06:58:20.606Z,67.84
2018-09-13T07:00:44.468Z,68.06
2018-09-13T07:03:08.308Z,69.15
2018-09-13T07:05:32.160Z,68.96
2018-09-13T07:07:56.047Z,69.82
2018-09-13T07:10:19.987Z,68.08
2018-09-13T07:12:43.867Z,67.96
2018-09-13T07:15:07.682Z,68.86
2018-09-13T07:17:31.541Z,66.69
2018-09-13T07:19:55.417Z,65.75
2018-09-13T07:22:19.279Z,66.10
2018-09-13T07:24:43.095Z,65.77
2018-09-13T07:27:07.051Z,66.86
2018-09-13T07:29:30.890Z,65.41
2018-09-13T07:31:54.761Z,64.47
2018-09-13T07:34:18.613Z,63.93
2018-09-13T07:36:42.681Z,63.16
2018-09-13T07:39:09.152Z,63.12
2018-09-13T07:41:32.972Z,62.43
2018-09-13T07:43:56.823Z,62.10
2018-09-13T07:46:20.655Z,63.03
2018-09-13T07:48:44.605Z,63.26
2018-09-13T07:51:08.454Z,63.66
2018-09-13T07:53:32.317Z,63.04
2018-09-13T07:55:56.183Z,63.09
2018-09-13T07:58:20.040Z,63.04
2018-09-13T08:00:43.911Z,63.67
2018-09-13T08:03:07.763Z,64.19
2018-09-13T08:05:31.713Z,64.41
2018-09-13T08:07:55.562Z,63.56
2018-09-13T08:10:19.418Z,64.22
2018-09-13T08:12:43.288Z,65.33
2018-09-13T08:15:07.156Z,65.50
2018-09-13T08:17:31.050Z,63.98
2018-09-13T08:19:54.894Z,65.12
2018-09-13T08:22:18.794Z,66.23
2018-09-13T08:24:42.631Z,66.28
2018-09-13T08:27:06.610Z,68.16
2018-09-13T08:29:30.474Z,66.19
2018-09-13T08:31:54.311Z,68.07
2018-09-13T08:34:18.147Z,68.22
2018-09-13T08:36:42.024Z,68.63
2018-09-13T08:39:09.625Z,68.49
2018-09-13T08:41:33.470Z,65.94
2018-09-13T08:43:57.339Z,67.13
2018-09-13T08:46:21.647Z,68.22
2018-09-13T08:48:45.503Z,65.83
2018-09-13T08:51:09.381Z,66.79
2018-09-13T08:53:33.227Z,66.08
2018-09-13T08:55:57.091Z,65.42
2018-09-13T08:58:20.945Z,66.35
2018-09-13T09:00:44.912Z,66.02
2018-09-13T09:03:08.766Z,66.99
2018-09-13T09:05:32.625Z,64.67
2018-09-13T09:07:56.474Z,64.21
2018-09-13T09:10:20.381Z,63.77
2018-09-13T09:12:44.252Z,64.99
2018-09-13T09:15:08.153Z,64.56
2018-09-13T09:17:32.046Z,64.40
2018-09-13T09:19:56.294Z,63.04
2018-09-13T09:22:20.205Z,65.31
2018-09-13T09:24:44.051Z,66.36
2018-09-13T09:27:07.994Z,65.11
2018-09-13T09:29:31.860Z,63.23
2018-09-13T09:31:55.870Z,63.87
2018-09-13T09:34:19.719Z,63.82
2018-09-13T09:36:43.683Z,64.68
2018-09-13T09:39:09.794Z,64.16
2018-09-13T09:41:33.632Z,64.82
2018-09-13T09:43:57.532Z,65.01
2018-09-13T09:46:21.432Z,64.90
2018-09-13T09:48:45.284Z,68.29
2018-09-13T09:51:09.290Z,64.90
2018-09-13T09:53:33.160Z,63.80
2018-09-13T09:55:57.003Z,63.87
2018-09-13T09:58:20.900Z,65.92
2018-09-13T10:00:50.014Z,66.13
2018-09-13T10:03:13.969Z,64.62
2018-09-13T10:05:37.884Z,63.13
2018-09-13T10:08:01.720Z,63.54
2018-09-13T10:10:25.589Z,62.19
2018-09-13T10:12:49.452Z,60.64
2018-09-13T10:15:18.547Z,64.85
2018-09-13T10:17:47.768Z,64.13
2018-09-13T10:20:16.938Z,62.27
2018-09-13T10:22:46.230Z,60.51
2018-09-13T10:25:15.311Z,60.01
2018-09-13T10:27:44.504Z,59.80
2018-09-13T10:30:13.708Z,59.10
2018-09-13T10:32:43.023Z,58.87
2018-09-13T10:35:12.157Z,59.01
2018-09-13T10:37:41.328Z,60.51
2018-09-13T10:40:10.594Z,60.08
2018-09-13T10:42:39.685Z,59.25
2018-09-13T10:45:08.925Z,59.46
2018-09-13T10:47:42.163Z,58.43
2018-09-13T10:50:07.415Z,57.16
2018-09-13T10:52:35.224Z,57.43
2018-09-13T10:54:59.023Z,57.73
2018-09-13T10:57:28.146Z,57.84
2018-09-13T10:59:52.011Z,57.41
2018-09-13T11:02:15.895Z,56.60
2018-09-13T11:04:40.066Z,55.91
2018-09-13T11:07:03.917Z,55.93
2018-09-13T11:09:27.785Z,55.86
2018-09-13T11:11:51.650Z,55.80
2018-09-13T11:14:22.669Z,55.00
2018-09-13T11:16:46.550Z,55.41
2018-09-13T11:19:10.570Z,55.65
2018-09-13T11:21:34.468Z,56.67
2018-09-13T11:23:58.339Z,59.04
2018-09-13T11:26:22.243Z,61.40
2018-09-13T11:28:46.135Z,61.64
2018-09-13T11:31:10.146Z,60.47
2018-09-13T11:33:34.914Z,61.23
2018-09-13T11:35:58.916Z,60.90
2018-09-13T11:38:22.853Z,60.49
2018-09-13T11:40:46.955Z,59.83
2018-09-13T11:43:10.908Z,60.07
2018-09-13T11:45:34.680Z,61.11
2018-09-13T11:47:58.635Z,59.46
2018-09-13T11:50:22.475Z,58.82
2018-09-13T11:52:46.351Z,58.15
2018-09-13T11:55:10.212Z,58.80
2018-09-13T11:57:34.101Z,58.42
2018-09-13T11:59:58.000Z,58.69
2018-09-13T12:02:21.911Z,58.40
2018-09-13T12:04:45.807Z,58.49
2018-09-13T12:07:09.809Z,59.26
2018-09-13T12:09:33.728Z,58.77
2018-09-13T12:11:57.605Z,59.25
2018-09-13T12:14:21.459Z,60.35
2018-09-13T12:16:45.331Z,59.84
2018-09-13T12:19:09.282Z,60.00
2018-09-13T12:21:33.110Z,59.46
2018-09-13T12:23:57.100Z,59.58
2018-09-13T12:26:20.931Z,59.38
2018-09-13T12:28:44.830Z,59.11
2018-09-13T12:31:08.731Z,58.07
2018-09-13T12:33:32.618Z,59.15
2018-09-13T12:35:56.814Z,58.43
2018-09-13T12:38:20.693Z,57.57
2018-09-13T12:40:44.567Z,56.99
2018-09-13T12:43:08.475Z,56.87
2018-09-13T12:45:32.379Z,57.04
2018-09-13T12:47:56.234Z,55.52
2018-09-13T12:50:20.127Z,56.07
2018-09-13T12:52:44.087Z,56.06
2018-09-13T12:55:07.946Z,56.54
2018-09-13T12:57:31.804Z,55.37
2018-09-13T12:59:55.736Z,55.50
2018-09-13T13:02:19.602Z,57.01
2018-09-13T13:04:43.471Z,56.37
2018-09-13T13:07:07.318Z,56.89
2018-09-13T13:09:31.184Z,57.71
2018-09-13T13:11:55.197Z,56.70
2018-09-13T13:14:19.136Z,55.77
2018-09-13T13:16:43.079Z,55.94
2018-09-13T13:19:06.888Z,55.66
2018-09-13T13:21:30.869Z,54.95
2018-09-13T13:23:54.756Z,55.14
2018-09-13T13:26:18.644Z,56.08
2018-09-13T13:28:42.494Z,54.92
2018-09-13T13:31:06.369Z,53.94
2018-09-13T13:33:30.272Z,54.08
2018-09-13T13:35:54.123Z,53.80
2018-09-13T13:38:17.956Z,52.92
2018-09-13T13:40:41.877Z,52.88
2018-09-13T13:43:05.713Z,54.20
2018-09-13T13:45:29.590Z,54.79
2018-09-13T13:47:53.484Z,56.55
2018-09-13T13:50:17.381Z,54.37
2018-09-13T13:52:41.545Z,53.77
2018-09-13T13:55:05.412Z,53.92
2018-09-13T13:57:29.299Z,53.55
2018-09-13T13:59:53.163Z,53.24
2018-09-13T14:02:17.124Z,53.47
2018-09-13T14:04:41.006Z,55.48
2018-09-13T14:07:04.976Z,56.10
2018-09-13T14:09:28.834Z,57.11
2018-09-13T14:11:52.696Z,56.52
2018-09-13T14:14:16.551Z,56.27
2018-09-13T14:16:40.420Z,55.97
2018-09-13T14:19:04.305Z,54.79
2018-09-13T14:21:28.166Z,54.64
2018-09-13T14:23:52.239Z,54.80
2018-09-13T14:26:16.089Z,54.09
2018-09-13T14:28:39.937Z,54.32
2018-09-13T14:31:03.818Z,53.70
2018-09-13T14:33:27.660Z,53.80
2018-09-13T14:35:51.522Z,55.00
2018-09-13T14:38:15.408Z,54.88
2018-09-13T14:40:39.255Z,54.50
2018-09-13T14:43:03.146Z,53.94
2018-09-13T14:45:26.998Z,55.62
2018-09-13T14:47:50.881Z,55.81
2018-09-13T14:50:14.741Z,55.93
2018-09-13T14:52:38.674Z,56.35
2018-09-13T14:55:02.515Z,55.29
2018-09-13T14:57:26.357Z,56.46
2018-09-13T14:59:50.257Z,57.42
2018-09-13T15:02:14.112Z,57.86
2018-09-13T15:04:38.066Z,59.75
2018-09-13T15:07:02.019Z,60.60
2018-09-13T15:09:25.886Z,61.88
2018-09-13T15:11:49.755Z,61.06
2018-09-13T15:14:13.653Z,59.76
2018-09-13T15:16:37.499Z,59.21
2018-09-13T15:19:01.457Z,61.72
2018-09-13T15:21:25.344Z,60.81
2018-09-13T15:23:49.235Z,60.69
2018-09-13T15:26:13.164Z,60.98
2018-09-13T15:28:37.039Z,61.62
2018-09-13T15:31:00.954Z,60.65
2018-09-13T15:33:24.823Z,61.39
2018-09-13T15:35:48.691Z,60.72
2018-09-13T15:38:12.559Z,61.01
2018-09-13T15:40:36.381Z,60.43
2018-09-13T15:43:00.263Z,61.61
2018-09-13T15:45:24.102Z,61.06
2018-09-13T15:47:47.993Z,60.11
2018-09-13T15:50:11.861Z,59.76
2018-09-13T15:52:35.740Z,60.33
2018-09-13T15:54:59.616Z,60.07
2018-09-13T15:57:23.497Z,59.95
2018-09-13T15:59:47.402Z,60.06
2018-09-13T16:02:11.308Z,60.14
2018-09-13T16:04:35.199Z,59.72
2018-09-13T16:06:59.118Z,60.58
2018-09-13T16:09:23.008Z,60.97
2018-09-13T16:11:47.029Z,61.05
2018-09-13T16:14:10.945Z,60.33
2018-09-13T16:16:35.237Z,61.39
2018-09-13T16:18:59.147Z,61.21
2018-09-13T16:21:23.027Z,60.78
2018-09-13T16:23:46.976Z,64.63
2018-09-13T16:26:10.933Z,62.08
2018-09-13T16:28:34.717Z,61.33
2018-09-13T16:30:58.620Z,61.55
2018-09-13T16:33:22.491Z,61.67
2018-09-13T16:35:49.889Z,61.43
2018-09-13T16:38:19.380Z,61.56
2018-09-13T16:40:48.598Z,60.97
2018-09-13T16:43:14.605Z,60.99
2018-09-13T16:45:38.756Z,62.02
2018-09-13T16:48:04.184Z,60.98
2018-09-13T16:50:28.434Z,61.34
2018-09-13T16:52:52.317Z,63.33
2018-09-13T16:55:16.203Z,62.52
2018-09-13T16:57:40.090Z,61.88
2018-09-13T17:00:04.045Z,61.32
2018-09-13T17:02:28.063Z,61.78
2018-09-13T17:04:51.962Z,62.44
2018-09-13T17:07:15.839Z,61.56
2018-09-13T17:09:39.939Z,63.29
2018-09-13T17:12:03.830Z,62.48
2018-09-13T17:14:27.757Z,62.94
2018-09-13T17:16:51.843Z,62.82
2018-09-13T17:19:15.799Z,62.25
2018-09-13T17:21:39.677Z,62.29
2018-09-13T17:24:04.176Z,62.89
2018-09-13T17:26:28.080Z,62.90
2018-09-13T17:28:51.944Z,63.46
2018-09-13T17:31:15.886Z,63.74
2018-09-13T17:33:39.780Z,63.91
2018-09-13T17:36:03.785Z,65.03
2018-09-13T17:38:27.689Z,65.25
2018-09-13T17:40:51.552Z,65.07
2018-09-13T17:43:15.464Z,64.68
2018-09-13T17:45:39.390Z,64.20
2018-09-13T17:48:03.355Z,64.71
2018-09-13T17:50:27.231Z,63.83
2018-09-13T17:52:51.138Z,63.50
2018-09-13T17:55:15.657Z,63.42
2018-09-13T17:57:39.539Z,63.36
2018-09-13T18:00:03.586Z,65.09
2018-09-13T18:02:29.963Z,64.54
2018-09-13T18:04:53.870Z,65.08
2018-09-13T18:07:17.849Z,64.33
2018-09-13T18:09:41.808Z,64.63
2018-09-13T18:12:05.656Z,64.05
2018-09-13T18:14:29.593Z,63.50
2018-09-13T18:16:53.469Z,63.88
2018-09-13T18:19:17.390Z,65.01
2018-09-13T18:21:41.309Z,65.08
2018-09-13T18:24:05.212Z,64.23
2018-09-13T18:26:29.124Z,65.27
2018-09-13T18:28:53.007Z,64.35
2018-09-13T18:31:16.961Z,65.42
2018-09-13T18:33:40.893Z,64.87
2018-09-13T18:36:04.820Z,65.49
2018-09-13T18:38:28.763Z,64.79
2018-09-13T18:40:52.703Z,64.64
2018-09-13T18:43:16.982Z,65.18
2018-09-13T18:45:41.038Z,64.24
2018-09-13T18:48:05.015Z,65.21
2018-09-13T18:50:29.157Z,66.36
2018-09-13T18:52:53.225Z,65.42
2018-09-13T18:55:17.259Z,65.20
2018-09-13T18:58:14.556Z,65.01
2018-09-13T19:00:38.715Z,64.79
2018-09-13T19:03:02.759Z,64.34
2018-09-13T19:05:28.439Z,65.23
2018-09-13T19:07:52.575Z,68.66
2018-09-13T19:10:16.469Z,67.81
2018-09-13T19:12:40.444Z,69.20
2018-09-13T19:15:04.440Z,67.08
2018-09-13T19:17:29.104Z,66.24
2018-09-13T19:19:53.158Z,67.24
2018-09-13T19:22:17.251Z,66.07
2018-09-13T19:24:41.229Z,65.70
2018-09-13T19:27:05.525Z,65.66
2018-09-13T19:29:29.545Z,65.28
2018-09-13T19:31:53.542Z,65.49
2018-09-13T19:34:17.531Z,65.38
2018-09-13T19:36:41.618Z,65.81
2018-09-13T19:39:08.883Z,66.24
2018-09-13T19:41:33.267Z,65.64
2018-09-13T19:43:57.211Z,65.42
2018-09-13T19:46:21.222Z,65.84
2018-09-13T19:48:45.226Z,65.85
2018-09-13T19:51:09.139Z,65.90
2018-09-13T19:53:33.103Z,66.07
2018-09-13T19:55:57.070Z,66.09
2018-09-13T19:58:21.504Z,65.51
2018-09-13T20:00:45.445Z,65.44
2018-09-13T20:03:09.482Z,65.80
2018-09-13T20:05:33.696Z,66.14
2018-09-13T20:07:57.586Z,66.36
2018-09-13T20:10:21.992Z,66.34
2018-09-13T20:12:45.934Z,66.43
2018-09-13T20:15:09.813Z,66.88
2018-09-13T20:17:33.824Z,66.87
2018-09-13T20:19:57.696Z,67.03
2018-09-13T20:22:21.599Z,66.30
2018-09-13T20:24:46.177Z,68.10
2018-09-13T20:27:09.999Z,66.66
2018-09-13T20:29:34.001Z,66.98
2018-09-13T20:31:57.865Z,67.30
2018-09-13T20:34:21.748Z,66.38
2018-09-13T20:36:45.633Z,65.82
2018-09-13T20:39:10.899Z,66.06
2018-09-13T20:41:34.812Z,67.36
2018-09-13T20:43:58.697Z,66.55
2018-09-13T20:46:22.572Z,66.37
2018-09-13T20:48:46.524Z,67.87
2018-09-13T20:51:10.397Z,69.31
2018-09-13T20:53:34.520Z,68.37
2018-09-13T20:55:58.360Z,67.62
2018-09-13T20:58:22.254Z,67.16
2018-09-13T21:00:46.290Z,69.17
2018-09-13T21:03:10.044Z,68.04
2018-09-13T21:05:34.009Z,68.62
2018-09-13T21:07:57.939Z,68.34
2018-09-13T21:10:21.801Z,69.31
2018-09-13T21:12:45.776Z,68.93
2018-09-13T21:15:10.050Z,71.99
2018-09-13T21:17:33.921Z,70.98
2018-09-13T21:19:57.783Z,68.61
2018-09-13T21:22:21.644Z,70.32
2018-09-13T21:24:45.639Z,69.31
2018-09-13T21:27:09.550Z,68.53
2018-09-13T21:29:33.422Z,67.61
2018-09-13T21:31:57.307Z,67.73
2018-09-13T21:34:22.076Z,68.98
2018-09-13T21:36:46.050Z,68.25
2018-09-13T21:39:10.650Z,68.66
2018-09-13T21:41:34.485Z,68.55
2018-09-13T21:43:58.362Z,68.20
2018-09-13T21:46:22.210Z,67.86
2018-09-13T21:48:46.199Z,68.33
2018-09-13T21:51:10.043Z,67.65
2018-09-13T21:53:33.883Z,67.47
2018-09-13T21:55:57.735Z,68.65
2018-09-13T21:58:21.567Z,68.92
2018-09-13T22:00:45.548Z,68.42
2018-09-13T22:03:09.405Z,67.79
2018-09-13T22:05:33.276Z,67.75
2018-09-13T22:07:57.169Z,67.92
2018-09-13T22:10:20.973Z,68.23
2018-09-13T22:12:44.967Z,67.44
2018-09-13T22:15:08.818Z,68.29
2018-09-13T22:17:32.639Z,68.43
2018-09-13T22:19:56.537Z,68.48
2018-09-13T22:22:20.386Z,67.72
2018-09-13T22:24:44.356Z,67.96
2018-09-13T22:27:08.218Z,68.68
2018-09-13T22:29:32.062Z,68.07
2018-09-13T22:31:55.976Z,66.95
2018-09-13T22:34:19.776Z,66.92
2018-09-13T22:36:43.616Z,67.42
2018-09-13T22:39:09.404Z,67.31
2018-09-13T22:41:33.359Z,67.45
2018-09-13T22:43:57.195Z,67.95
2018-09-13T22:46:22.712Z,67.18
2018-09-13T22:48:46.654Z,67.17
2018-09-13T22:51:10.497Z,67.01
2018-09-13T22:53:34.371Z,66.83
2018-09-13T22:55:58.227Z,66.43
2018-09-13T22:58:22.052Z,67.13
2018-09-13T23:00:45.898Z,66.77
2018-09-13T23:03:09.772Z,67.00
2018-09-13T23:05:33.621Z,66.79
2018-09-13T23:07:57.722Z,66.38
2018-09-13T23:10:21.553Z,66.71
2018-09-13T23:12:45.631Z,66.61
2018-09-13T23:15:09.445Z,67.09
2018-09-13T23:17:33.370Z,67.59
2018-09-13T23:19:57.213Z,67.54
2018-09-13T23:22:21.048Z,67.64
2018-09-13T23:24:44.972Z,67.86
2018-09-13T23:27:09.779Z,67.87
2018-09-13T23:29:33.591Z,67.68
2018-09-13T23:31:57.431Z,67.97
2018-09-13T23:34:21.276Z,67.70
2018-09-13T23:36:45.223Z,67.58
2018-09-13T23:39:09.736Z,68.25
2018-09-13T23:41:33.555Z,68.54
2018-09-13T23:43:57.425Z,68.71
2018-09-13T23:46:21.306Z,67.88
2018-09-13T23:48:45.205Z,67.59
2018-09-13T23:51:09.164Z,67.15
2018-09-13T23:53:32.990Z,67.82
2018-09-13T23:55:56.856Z,67.85
2018-09-13T23:58:20.690Z,68.23
